Time;durP1;ratioP1;P1;durP2;ratioP2;P2;SDS_P1;SDS_P2;PMS_P1;PMS_P2;Temp;Humidity;BMP_temperature;BMP_pressure;BME280_temperature;BME280_humidity;BME280_pressure;Samples;Min_cycle;Max_cycle;Signal;HPM_P1;HPM_P2
2022/05/01 00:00:07;;;;;;;28.00;25.80;;;;;;;9.49;100.00;102425.97;10498222;28;20059;-63
2022/05/01 00:05:10;;;;;;;22.50;20.95;;;;;;;9.21;100.00;102418.84;10498079;28;20048;-63
2022/05/01 00:10:12;;;;;;;21.27;19.88;;;;;;;9.55;98.10;102419.69;10497556;28;20055;-63
2022/05/01 00:15:14;;;;;;;37.92;35.47;;;;;;;9.32;100.00;102412.50;10504858;28;20041;-63
2022/05/01 00:20:16;;;;;;;27.13;25.05;;;;;;;9.17;100.00;102409.38;10505890;28;20061;-63
2022/05/01 00:25:19;;;;;;;26.42;24.10;;;;;;;9.24;99.66;102412.69;10504508;28;20049;-63
2022/05/01 00:30:21;;;;;;;24.63;23.05;;;;;;;9.24;100.00;102415.28;10505302;28;20056;-63
2022/05/01 00:40:44;;;;;;;58.60;55.38;;;;;;;9.08;100.00;102405.25;10503876;28;20068;-63
2022/05/01 00:45:46;;;;;;;44.60;41.15;;;;;;;9.07;100.00;102408.75;10504835;28;20052;-63
2022/05/01 00:50:49;;;;;;;57.33;53.53;;;;;;;9.01;100.00;102408.03;10504659;28;20060;-63
2022/05/01 00:55:51;;;;;;;58.83;55.15;;;;;;;9.19;100.00;102404.94;10504438;28;20047;-63
2022/05/01 01:00:54;;;;;;;75.50;71.10;;;;;;;9.26;100.00;102401.31;10504292;28;20053;-63
2022/05/01 01:05:56;;;;;;;84.85;80.32;;;;;;;9.16;100.00;102393.72;10504128;28;20132;-63
2022/05/01 01:10:58;;;;;;;77.93;73.47;;;;;;;9.13;100.00;102396.41;10503901;28;20055;-63
2022/05/01 01:16:06;;;;;;;81.40;76.55;;;;;;;9.12;100.00;102398.19;10503643;28;20048;-63
2022/05/01 01:21:10;;;;;;;87.35;82.72;;;;;;;9.33;100.00;102394.16;10502497;28;20053;-63
2022/05/01 01:26:14;;;;;;;102.00;96.07;;;;;;;9.05;100.00;102399.25;10502708;28;20045;-63
2022/05/01 01:36:40;;;;;;;110.00;103.93;;;;;;;9.01;100.00;102394.97;10502877;28;20052;-63
2022/05/01 01:41:42;;;;;;;133.77;126.82;;;;;;;8.88;100.00;102404.88;10502375;28;20064;-63
2022/05/01 01:46:45;;;;;;;132.25;124.97;;;;;;;8.90;100.00;102390.88;10501350;28;20040;-63
2022/05/01 01:51:47;;;;;;;116.07;109.72;;;;;;;9.07;100.00;102392.22;10502317;28;20093;-63
2022/05/01 01:56:49;;;;;;;144.52;136.88;;;;;;;9.03;100.00;102391.44;10500860;28;20041;-63
2022/05/01 02:01:51;;;;;;;163.38;155.10;;;;;;;8.68;100.00;102382.72;10483697;28;20411;-63
2022/05/01 02:06:54;;;;;;;162.45;153.73;;;;;;;8.84;100.00;102382.34;10502120;28;20052;-63
2022/05/01 02:11:57;;;;;;;156.48;148.23;;;;;;;8.98;100.00;102377.63;10501687;28;20052;-64
2022/05/01 02:17:02;;;;;;;158.15;150.18;;;;;;;8.81;100.00;102366.72;10501193;28;20052;-63
2022/05/01 02:22:05;;;;;;;166.55;158.07;;;;;;;8.70;100.00;102380.06;10501121;28;20124;-63
2022/05/01 02:27:07;;;;;;;169.52;160.90;;;;;;;8.65;100.00;102377.56;10500878;28;20057;-63
2022/05/01 02:32:09;;;;;;;192.05;182.35;;;;;;;8.45;100.00;102371.97;10500663;28;20052;-63
2022/05/01 02:37:12;;;;;;;205.80;195.35;;;;;;;8.38;100.00;102377.28;10499463;28;20048;-63
2022/05/01 02:42:14;;;;;;;190.93;181.40;;;;;;;8.41;100.00;102367.69;10499953;28;20056;-63
2022/05/01 02:47:16;;;;;;;201.90;191.98;;;;;;;8.63;100.00;102373.28;10500000;28;20049;-63
2022/05/01 02:52:20;;;;;;;229.70;218.60;;;;;;;8.17;100.00;102372.56;10499871;28;20055;-63
2022/05/01 02:57:22;;;;;;;255.10;242.70;;;;;;;8.26;100.00;102363.66;10499644;28;20044;-63
2022/05/01 03:02:25;;;;;;;268.33;255.30;;;;;;;8.29;100.00;102368.81;10499103;28;20045;-63
2022/05/01 03:07:27;;;;;;;264.38;251.55;;;;;;;8.30;100.00;102362.69;10499338;28;20051;-63
2022/05/01 03:12:29;;;;;;;292.60;278.15;;;;;;;8.09;100.00;102366.66;10498710;28;20407;-63
2022/05/01 03:22:54;;;;;;;301.08;286.50;;;;;;;8.46;100.00;102360.63;10497384;28;20059;-63
2022/05/01 03:27:57;;;;;;;308.55;293.65;;;;;;;8.50;100.00;102349.22;10498855;28;20059;-63
2022/05/01 03:32:59;;;;;;;276.55;263.00;;;;;;;8.57;100.00;102345.56;10498688;28;20055;-64
2022/05/01 03:38:03;;;;;;;278.88;265.45;;;;;;;8.32;100.00;102347.84;10498622;28;20045;-63
2022/05/01 03:43:05;;;;;;;305.75;290.63;;;;;;;8.41;100.00;102338.97;10498198;28;20071;-63
2022/05/01 03:48:08;;;;;;;314.05;298.95;;;;;;;8.31;100.00;102346.16;10506057;28;20044;-64
2022/05/01 03:53:10;;;;;;;310.65;295.50;;;;;;;8.27;100.00;102345.38;10511474;28;20438;-63
2022/05/01 03:58:13;;;;;;;327.40;311.33;;;;;;;8.42;100.00;102344.13;10510778;28;20044;-63
2022/05/01 04:03:16;;;;;;;337.27;320.70;;;;;;;8.20;100.00;102349.00;10527565;28;20052;-64
2022/05/01 04:08:19;;;;;;;328.38;312.17;;;;;;;8.15;100.00;102354.34;10511810;28;20044;-63
2022/05/01 04:13:22;;;;;;;339.33;322.73;;;;;;;8.28;100.00;102360.13;10509918;28;20407;-64
2022/05/01 04:18:25;;;;;;;350.80;333.45;;;;;;;8.04;100.00;102358.06;10511649;28;20056;-64
2022/05/01 04:23:27;;;;;;;349.83;332.92;;;;;;;8.22;100.00;102355.06;10510500;28;20059;-63
2022/05/01 04:28:30;;;;;;;343.80;326.85;;;;;;;8.12;100.00;102359.63;10510884;28;20403;-63
2022/05/01 04:33:32;;;;;;;358.70;341.10;;;;;;;8.22;100.00;102354.19;10511349;28;20055;-64
2022/05/01 04:38:34;;;;;;;366.10;347.77;;;;;;;8.35;100.00;102351.28;10510603;28;20055;-63
2022/05/01 04:43:40;;;;;;;351.65;334.30;;;;;;;8.38;100.00;102350.31;10510361;28;20530;-64
2022/05/01 04:48:43;;;;;;;350.95;333.85;;;;;;;8.54;100.00;102351.72;10510638;28;20060;-63
2022/05/01 04:53:46;;;;;;;353.52;336.23;;;;;;;8.22;100.00;102364.63;10511069;28;20062;-63
2022/05/01 04:58:48;;;;;;;355.25;337.55;;;;;;;8.54;100.00;102358.72;10507232;28;20048;-63
2022/05/01 05:03:50;;;;;;;355.20;337.60;;;;;;;8.55;100.00;102361.25;10503628;28;20483;-64
2022/05/01 05:14:13;;;;;;;357.92;340.33;;;;;;;8.64;100.00;102365.41;10503918;28;20045;-64
2022/05/01 05:19:16;;;;;;;356.75;339.27;;;;;;;8.70;100.00;102367.00;10503602;28;20044;-64
2022/05/01 05:24:19;;;;;;;356.73;339.05;;;;;;;8.85;100.00;102369.25;10502852;28;20048;-63
2022/05/01 05:29:21;;;;;;;360.73;342.83;;;;;;;9.20;100.00;102377.94;10503282;28;20044;-63
2022/05/01 05:34:24;;;;;;;363.05;345.05;;;;;;;9.00;100.00;102370.59;10502359;28;20395;-63
2022/05/01 05:39:26;;;;;;;360.58;342.95;;;;;;;9.02;100.00;102381.03;10502909;28;20086;-64
2022/05/01 05:44:28;;;;;;;358.10;340.42;;;;;;;8.86;100.00;102384.03;10501831;28;20066;-64
2022/05/01 05:49:33;;;;;;;355.75;338.20;;;;;;;9.08;100.00;102379.09;10502472;28;20055;-64
2022/05/01 05:54:36;;;;;;;373.08;354.33;;;;;;;9.19;100.00;102384.03;10501576;28;20476;-64
2022/05/01 05:59:38;;;;;;;369.45;351.25;;;;;;;9.46;100.00;102378.97;10502061;28;20060;-64
2022/05/01 06:04:41;;;;;;;387.40;368.60;;;;;;;9.56;100.00;102385.66;10500235;28;20407;-64
2022/05/01 06:09:43;;;;;;;373.85;355.40;;;;;;;9.55;100.00;102393.56;10501593;28;20048;-63
2022/05/01 06:14:46;;;;;;;379.38;360.80;;;;;;;9.79;100.00;102390.25;10516977;28;20131;-63
2022/05/01 06:19:48;;;;;;;372.42;354.17;;;;;;;9.76;100.00;102392.94;10500587;28;20056;-63
2022/05/01 06:24:51;;;;;;;368.52;350.33;;;;;;;9.89;100.00;102397.84;10500312;28;20048;-63
2022/05/01 06:29:53;;;;;;;378.83;360.13;;;;;;;10.05;100.00;102396.47;10500763;28;20044;-63
2022/05/01 06:34:56;;;;;;;364.00;346.23;;;;;;;10.05;100.00;102393.84;10499942;28;20380;-63
2022/05/01 06:40:04;;;;;;;367.48;349.48;;;;;;;10.10;100.00;102391.97;10499824;28;20052;-64
2022/05/01 06:45:07;;;;;;;365.13;347.45;;;;;;;10.35;100.00;102392.09;10499436;28;20400;-63
2022/05/01 06:50:10;;;;;;;359.38;342.08;;;;;;;10.73;99.50;102397.06;10499999;28;20048;-64
2022/05/01 06:55:14;;;;;;;326.10;310.20;;;;;;;10.66;96.71;102398.13;10497980;28;20496;-63
2022/05/01 07:00:17;;;;;;;308.88;294.00;;;;;;;10.54;96.93;102396.75;10499666;28;20048;-63
2022/05/01 07:05:20;;;;;;;331.92;315.67;;;;;;;11.31;96.90;102395.09;10499432;28;20048;-63
2022/05/01 07:10:23;;;;;;;266.95;254.18;;;;;;;11.03;95.02;102399.53;10498763;28;20509;-64
2022/05/01 07:15:25;;;;;;;251.82;239.43;;;;;;;11.21;92.24;102404.16;10499075;28;20040;-64
2022/05/01 07:20:29;;;;;;;230.65;219.63;;;;;;;11.09;94.07;102392.31;10497976;28;20400;-64
2022/05/01 07:25:32;;;;;;;188.15;178.07;;;;;;;11.23;90.36;102396.25;10498925;28;20052;-64
2022/05/01 07:30:34;;;;;;;204.05;193.80;;;;;;;11.56;93.18;102394.19;10497686;28;20052;-64
2022/05/01 07:35:37;;;;;;;190.43;180.77;;;;;;;12.42;88.63;102398.00;10498029;28;20480;-64
2022/05/01 07:40:40;;;;;;;133.65;126.70;;;;;;;12.51;84.98;102397.66;10497749;28;20488;-63
2022/05/01 07:45:44;;;;;;;113.20;107.03;;;;;;;12.18;86.96;102402.47;10498523;28;20052;-64
2022/05/01 07:50:48;;;;;;;83.38;78.30;;;;;;;11.97;86.88;102396.25;10498491;28;20106;-63
2022/05/01 07:55:50;;;;;;;72.05;67.65;;;;;;;13.20;81.67;102388.66;10496560;28;20041;-64
2022/05/01 08:00:54;;;;;;;49.92;46.55;;;;;;;12.37;84.98;102392.06;10497611;28;20052;-64
2022/05/01 08:05:58;;;;;;;36.50;34.17;;;;;;;13.07;83.66;102393.59;10498172;28;20049;-64
2022/05/01 08:11:01;;;;;;;28.08;25.77;;;;;;;13.41;80.44;102393.94;10496280;28;20067;-64
2022/05/01 08:16:04;;;;;;;21.13;19.35;;;;;;;12.80;82.06;102395.59;10497904;28;20056;-64
2022/05/01 08:21:09;;;;;;;18.30;16.45;;;;;;;13.51;78.90;102390.81;10497196;28;20513;-64
2022/05/01 08:26:13;;;;;;;15.88;14.38;;;;;;;13.20;81.78;102386.03;10498308;28;20048;-64
2022/05/01 08:31:15;;;;;;;18.23;16.75;;;;;;;14.11;71.54;102393.38;10496997;28;20057;-64
2022/05/01 08:36:18;;;;;;;22.15;20.08;;;;;;;14.60;71.82;102391.97;10503306;28;20045;-64
2022/05/01 08:41:22;;;;;;;35.33;32.58;;;;;;;14.92;69.93;102382.47;10504308;28;20487;-64
2022/05/01 08:46:37;;;;;;;46.42;43.42;;;;;;;14.71;71.29;102378.25;10504916;28;20049;-64
2022/05/01 08:51:43;;;;;;;56.55;53.38;;;;;;;14.99;70.08;102386.47;10503588;28;20052;-63
2022/05/01 08:56:45;;;;;;;79.97;75.35;;;;;;;14.77;69.50;102385.88;10504468;28;20044;-64
2022/05/01 09:01:48;;;;;;;130.10;123.03;;;;;;;14.15;68.84;102380.91;10504436;28;20049;-64
2022/05/01 09:06:50;;;;;;;118.18;111.95;;;;;;;13.94;71.27;102380.16;10503762;28;20446;-64
2022/05/01 09:17:19;;;;;;;;;;;;;;;13.88;73.15;102383.06;10503545;28;20404;-64
2022/05/01 09:22:22;;;;;;;93.30;87.78;;;;;;;15.13;70.80;102375.25;10502457;28;19921;-64
2022/05/01 09:27:27;;;;;;;185.02;175.93;;;;;;;15.56;64.19;102372.97;10502740;28;20476;-64
2022/05/01 09:32:37;;;;;;;222.98;212.20;;;;;;;16.50;61.30;102372.25;10502695;28;20074;-64
2022/05/01 09:37:40;;;;;;;271.58;258.58;;;;;;;16.38;60.77;102373.81;10502458;28;20048;-64
2022/05/01 09:42:42;;;;;;;289.67;275.70;;;;;;;14.81;64.75;102380.38;10501124;28;20063;-64
2022/05/01 09:47:45;;;;;;;280.13;266.88;;;;;;;14.18;67.94;102382.56;10502107;28;20063;-64
2022/05/01 09:52:59;;;;;;;269.02;256.33;;;;;;;14.72;63.99;102375.56;10518077;28;20048;-64
2022/05/01 09:58:07;;;;;;;326.42;311.13;;;;;;;14.10;61.35;102365.34;10501040;28;20041;-64
2022/05/01 10:03:28;;;;;;;342.25;326.17;;;;;;;13.80;58.18;102366.75;10502035;28;20060;-64
2022/05/01 10:08:32;;;;;;;335.67;319.05;;;;;;;14.04;59.55;102370.03;10501835;28;20045;-64
2022/05/01 10:13:35;;;;;;;309.52;294.67;;;;;;;13.78;62.41;102361.56;10500364;28;20052;-63
2022/05/01 10:18:39;;;;;;;306.75;292.33;;;;;;;14.51;62.06;102359.00;10501286;28;20078;-64
2022/05/01 10:24:03;;;;;;;341.88;325.45;;;;;;;13.55;58.62;102365.25;10501155;28;20051;-64
2022/05/01 10:29:39;;;;;;;365.83;348.42;;;;;;;13.94;55.88;102357.28;10500888;28;20076;-64
2022/05/01 10:34:57;;;;;;;364.10;346.45;;;;;;;13.82;54.08;102357.00;10499731;28;20066;-64
2022/05/01 10:40:01;;;;;;;404.27;382.48;;;;;;;13.16;53.69;102355.53;10499830;28;20464;-64
2022/05/01 10:45:23;;;;;;;360.63;343.50;;;;;;;14.57;53.59;102349.94;10498382;28;20059;-63
2022/05/01 10:50:27;;;;;;;366.75;349.17;;;;;;;13.94;50.54;102349.41;10499389;28;20550;-64
2022/05/01 10:55:42;;;;;;;383.50;365.08;;;;;;;14.49;50.57;102345.03;10507549;22;20059;-66
2022/05/01 11:00:48;;;;;;;369.10;351.52;;;;;;;14.72;51.99;102338.63;10457823;28;20056;-66
2022/05/01 11:05:55;;;;;;;381.90;363.83;;;;;;;15.08;50.81;102332.44;10457153;28;20091;-66
2022/05/01 11:10:59;;;;;;;373.98;356.13;;;;;;;14.30;49.81;102324.00;10457051;28;20067;-66
2022/05/01 11:16:07;;;;;;;361.27;344.05;;;;;;;14.89;49.78;102326.38;10457257;28;20055;-67
2022/05/01 11:21:22;;;;;;;370.13;352.38;;;;;;;15.79;50.24;102321.59;10456600;28;20059;-67
2022/05/01 11:26:24;;;;;;;380.63;362.48;;;;;;;15.29;49.96;102319.88;10457523;28;20048;-67
2022/05/01 11:31:36;;;;;;;380.33;362.02;;;;;;;15.39;48.83;102313.19;10457490;28;20060;-67
2022/05/01 11:37:14;;;;;;;376.13;357.77;;;;;;;15.82;49.81;102311.78;10457262;28;20107;-67
2022/05/01 11:42:35;;;;;;;366.80;349.50;;;;;;;16.56;46.94;102303.19;10430223;28;20480;-67
2022/05/01 11:47:40;;;;;;;368.27;350.55;;;;;;;16.59;48.04;102299.47;10455959;28;20045;-67
2022/05/01 11:52:44;;;;;;;342.75;326.67;;;;;;;15.11;48.68;102297.94;10456975;28;20076;-67
2022/05/01 12:03:27;;;;;;;378.85;360.50;;;;;;;15.93;50.65;102278.56;10455178;28;20439;-67
2022/05/01 12:08:29;;;;;;;384.98;366.38;;;;;;;16.77;49.20;102271.94;10458156;28;20559;-67
2022/05/01 12:13:32;;;;;;;363.48;346.30;;;;;;;16.26;49.53;102272.31;10464301;28;20403;-67
2022/05/01 12:18:34;;;;;;;363.65;346.27;;;;;;;16.41;49.50;102265.28;10463975;28;20056;-67
2022/05/01 12:23:47;;;;;;;369.23;351.70;;;;;;;16.80;48.87;102255.88;10463412;28;20045;-67
2022/05/01 12:28:50;;;;;;;361.40;344.35;;;;;;;17.30;48.49;102252.88;10463255;28;20059;-67
2022/05/01 12:33:53;;;;;;;364.42;347.10;;;;;;;18.15;47.54;102241.19;10462978;28;20063;-67
2022/05/01 12:39:05;;;;;;;370.88;353.25;;;;;;;17.75;47.74;102232.34;10446319;28;20056;-67
2022/05/01 12:44:09;;;;;;;353.88;337.05;;;;;;;18.48;48.08;102236.41;10463799;28;20056;-67
2022/05/01 12:49:24;;;;;;;341.83;325.67;;;;;;;17.43;47.36;102238.78;10463547;28;20049;-67
2022/05/01 12:54:27;;;;;;;369.38;349.73;;;;;;;18.07;45.67;102226.78;10463493;28;20052;-67
2022/05/01 12:59:31;;;;;;;323.30;307.90;;;;;;;16.01;50.64;102230.59;10461249;28;20053;-67
2022/05/01 13:04:34;;;;;;;305.80;291.40;;;;;;;16.60;48.49;102221.88;10461276;28;20396;-67
2022/05/01 13:09:51;;;;;;;264.60;251.82;;;;;;;15.65;47.35;102225.56;10462859;28;20052;-67
2022/05/01 13:14:58;;;;;;;287.70;274.33;;;;;;;16.16;48.76;102218.28;10462638;28;20159;-67
2022/05/01 13:20:00;;;;;;;313.90;299.17;;;;;;;17.58;46.99;102218.41;10460809;28;20111;-67
2022/05/01 13:25:04;;;;;;;299.92;286.02;;;;;;;17.45;46.15;102217.53;10461427;28;20044;-67
2022/05/01 13:30:07;;;;;;;253.73;241.55;;;;;;;16.11;46.76;102215.06;10461985;28;20045;-67
2022/05/01 13:35:09;;;;;;;258.17;245.90;;;;;;;16.49;45.66;102206.66;10461876;28;20049;-67
2022/05/01 13:45:33;;;;;;;;;;;;;;;17.87;47.63;102189.22;10461248;28;20484;-67
2022/05/01 13:50:36;;;;;;;240.35;229.02;;;;;;;17.32;43.04;102190.13;10460583;28;20410;-67
2022/05/01 13:55:39;;;;;;;271.92;259.05;;;;;;;17.74;45.32;102175.06;10459013;28;20132;-67
2022/05/01 14:00:42;;;;;;;223.38;212.75;;;;;;;18.10;42.20;102184.16;10459613;28;20044;-67
2022/05/01 14:05:44;;;;;;;241.10;229.73;;;;;;;17.55;45.00;102172.75;10460589;28;20059;-67
2022/05/01 14:10:47;;;;;;;234.05;223.02;;;;;;;17.28;46.88;102173.56;10459215;28;20060;-67
2022/05/01 14:15:49;;;;;;;231.20;220.48;;;;;;;17.77;45.56;102169.53;10460025;28;20049;-67
2022/05/01 14:20:52;;;;;;;224.18;213.63;;;;;;;16.37;47.13;102165.09;10458846;28;20045;-67
2022/05/01 14:25:55;;;;;;;229.38;218.60;;;;;;;17.11;45.40;102158.78;10458557;28;20045;-67
2022/05/01 14:31:07;;;;;;;242.20;230.88;;;;;;;16.60;48.66;102164.56;10458969;28;20495;-67
2022/05/01 14:36:15;;;;;;;227.95;217.25;;;;;;;15.84;47.80;102159.41;10458670;28;20492;-67
2022/05/01 14:41:34;;;;;;;235.68;224.50;;;;;;;16.19;47.98;102154.69;10457463;28;20045;-67
2022/05/01 14:46:40;;;;;;;238.52;226.93;;;;;;;15.93;48.31;102154.44;10457845;28;20055;-67
2022/05/01 14:51:43;;;;;;;219.07;208.80;;;;;;;16.18;47.44;102155.63;10458876;28;20049;-67
2022/05/01 14:56:46;;;;;;;222.20;211.10;;;;;;;16.29;47.34;102145.28;10457020;28;20049;-67
2022/05/01 15:07:11;;;;;;;212.93;202.88;;;;;;;16.05;46.29;102137.00;10456642;28;20057;-67
2022/05/01 15:12:14;;;;;;;219.88;209.18;;;;;;;16.61;47.11;102134.53;10440561;28;20056;-67
2022/05/01 15:17:23;;;;;;;237.70;226.48;;;;;;;16.77;47.10;102144.16;10457866;28;20056;-67
2022/05/01 15:22:42;;;;;;;244.80;233.40;;;;;;;17.12;46.52;102136.66;10457185;28;20499;-67
2022/05/01 15:28:01;;;;;;;239.50;228.40;;;;;;;16.89;48.00;102135.47;10455845;28;20045;-67
2022/05/01 15:38:43;;;;;;;178.20;169.57;;;;;;;16.00;44.56;102133.78;10455610;28;20049;-67
2022/05/01 15:43:46;;;;;;;158.40;150.65;;;;;;;16.14;44.01;102131.19;10455551;28;20056;-67
2022/05/01 15:54:18;;;;;;;172.65;164.38;;;;;;;16.44;45.37;102134.69;10456972;28;20053;-67
2022/05/01 15:59:22;;;;;;;174.38;165.90;;;;;;;16.34;45.04;102129.16;10455898;28;20416;-67
2022/05/01 16:04:26;;;;;;;206.63;196.68;;;;;;;16.72;46.68;102125.91;10471546;28;20163;-67
2022/05/01 16:09:38;;;;;;;196.48;187.13;;;;;;;16.57;46.24;102127.72;10454924;28;20068;-67
2022/05/01 16:14:51;;;;;;;207.48;197.48;;;;;;;16.55;47.69;102123.47;10454792;28;20488;-67
2022/05/01 16:20:06;;;;;;;155.93;148.23;;;;;;;15.39;45.28;102117.03;10455787;28;20045;-67
2022/05/01 16:25:11;;;;;;;178.55;169.73;;;;;;;15.28;47.80;102109.75;10456354;28;20059;-67
2022/05/01 16:30:15;;;;;;;188.10;179.00;;;;;;;16.04;46.15;102114.19;10439145;28;20045;-67
2022/05/01 16:35:20;;;;;;;190.50;181.07;;;;;;;15.92;47.64;102104.34;10455001;28;20049;-67
2022/05/01 16:40:23;;;;;;;204.25;194.27;;;;;;;15.45;48.31;102103.50;10455456;28;20045;-66
2022/05/01 16:45:28;;;;;;;217.80;207.50;;;;;;;15.52;48.48;102090.81;10455288;28;20045;-66
2022/05/01 16:50:31;;;;;;;196.70;187.07;;;;;;;15.75;47.40;102095.63;10454775;28;20053;-66
2022/05/01 16:55:34;;;;;;;219.13;208.65;;;;;;;15.32;49.35;102094.59;10457522;28;20056;-66
2022/05/01 17:00:37;;;;;;;203.00;193.23;;;;;;;15.55;47.84;102088.84;10462053;28;20053;-66
2022/05/01 17:06:02;;;;;;;241.23;229.93;;;;;;;16.18;48.77;102088.72;10463057;28;20083;-67
2022/05/01 17:11:23;;;;;;;177.38;168.65;;;;;;;16.27;44.70;102081.09;10462828;28;20131;-67
2022/05/01 17:16:59;;;;;;;161.73;153.70;;;;;;;15.80;44.92;102076.84;10462021;28;20049;-67
2022/05/01 17:22:08;;;;;;;165.30;157.23;;;;;;;15.94;45.89;102083.97;10461816;28;20053;-67
2022/05/01 17:27:15;;;;;;;199.88;190.10;;;;;;;15.52;49.21;102082.91;10476980;28;20059;-67
2022/05/01 17:32:23;;;;;;;204.30;194.52;;;;;;;15.12;49.00;102082.53;10461488;28;20053;-67
2022/05/01 17:37:27;;;;;;;228.88;218.23;;;;;;;14.85;52.60;102093.66;10460047;28;20495;-67
2022/05/01 17:42:31;;;;;;;243.60;232.27;;;;;;;14.80;53.42;102086.00;10459938;28;20492;-67
2022/05/01 17:47:36;;;;;;;226.50;215.60;;;;;;;14.55;50.83;102093.50;10460998;28;20052;-67
2022/05/01 17:52:39;;;;;;;253.52;241.77;;;;;;;14.38;54.69;102099.69;10460259;28;20049;-66
2022/05/01 17:57:43;;;;;;;252.95;240.95;;;;;;;14.16;54.38;102098.16;10459429;28;20080;-66
2022/05/01 18:02:57;;;;;;;269.38;256.88;;;;;;;13.68;57.51;102097.09;10459128;28;20408;-66
2022/05/01 18:13:47;;;;;;;292.13;278.10;;;;;;;13.38;60.21;102103.78;10459829;28;20400;-66
2022/05/01 18:19:16;;;;;;;296.60;282.85;;;;;;;12.73;62.58;102105.09;10460130;28;20041;-66
2022/05/01 18:24:18;;;;;;;299.20;285.17;;;;;;;12.51;64.50;102108.69;10458257;28;20442;-70
2022/05/01 18:35:04;;;;;;;315.17;300.42;;;;;;;12.10;66.96;102105.22;10458555;28;20060;-69
2022/05/01 18:40:08;;;;;;;;;;;;;;;12.22;66.83;102112.56;10457907;28;20041;-70
2022/05/01 18:45:13;;;;;;;300.52;286.38;;;;;;;12.06;67.82;102122.88;10457921;28;19933;-69
2022/05/01 18:50:18;;;;;;;320.70;305.73;;;;;;;11.97;69.09;102121.50;10457089;28;20052;-69
2022/05/01 18:55:20;;;;;;;324.30;308.73;;;;;;;11.55;71.80;102124.09;10440299;28;20523;-69
2022/05/01 19:00:23;;;;;;;312.38;297.85;;;;;;;11.44;74.51;102128.00;10457304;28;20052;-69
2022/05/01 19:05:26;;;;;;;316.90;301.88;;;;;;;11.30;73.60;102115.44;10456497;28;20071;-70
2022/05/01 19:10:45;;;;;;;329.05;313.48;;;;;;;11.24;74.00;102115.66;10456978;28;20040;-70
2022/05/01 19:15:47;;;;;;;323.80;308.55;;;;;;;10.90;74.72;102129.22;10456835;28;20053;-68
2022/05/01 19:21:11;;;;;;;317.38;302.35;;;;;;;10.69;76.83;102134.34;10456424;28;20106;-68
2022/05/01 19:26:20;;;;;;;322.15;307.13;;;;;;;10.63;77.10;102149.44;10457703;28;20053;-68
2022/05/01 19:31:30;;;;;;;305.30;290.83;;;;;;;10.60;77.00;102145.16;10456413;28;20041;-68
2022/05/01 19:36:58;;;;;;;310.42;295.92;;;;;;;10.44;79.89;102160.56;10456204;28;20049;-68
2022/05/01 19:42:27;;;;;;;298.42;283.90;;;;;;;10.37;79.31;102154.69;10456133;28;20053;-68
2022/05/01 19:53:18;;;;;;;286.80;273.20;;;;;;;10.26;81.42;102158.56;10456373;28;20057;-68
2022/05/01 19:58:21;;;;;;;279.35;266.13;;;;;;;10.18;80.67;102154.41;10455118;28;20064;-68
2022/05/01 20:03:30;;;;;;;296.08;281.95;;;;;;;10.36;79.94;102158.19;10456111;28;20053;-68
2022/05/01 20:08:32;;;;;;;282.65;269.05;;;;;;;10.06;80.18;102151.38;10456696;28;20053;-68
2022/05/01 20:13:35;;;;;;;272.40;259.48;;;;;;;9.99;81.17;102154.19;10455385;28;20056;-68
2022/05/01 20:18:50;;;;;;;266.27;253.60;;;;;;;9.88;82.81;102153.69;10471873;28;20055;-68
2022/05/01 20:24:29;;;;;;;268.33;255.52;;;;;;;9.78;82.54;102157.50;10455377;28;20055;-68
2022/05/01 20:30:08;;;;;;;253.68;241.55;;;;;;;9.86;83.48;102152.88;10458908;28;20391;-68
2022/05/01 20:35:12;;;;;;;252.55;240.55;;;;;;;9.74;84.95;102150.66;10459436;28;20480;-68
2022/05/01 20:40:18;;;;;;;235.85;224.38;;;;;;;9.76;86.19;102152.31;10462145;28;20052;-68
2022/05/01 20:45:41;;;;;;;212.80;202.30;;;;;;;9.57;86.67;102145.97;10462607;28;20052;-68
2022/05/01 20:50:56;;;;;;;191.93;182.27;;;;;;;9.36;89.53;102153.56;10451849;28;20049;-68
2022/05/01 20:56:02;;;;;;;160.15;152.05;;;;;;;9.28;91.03;102153.81;10462054;28;20056;-68
2022/05/01 21:01:05;;;;;;;154.73;146.95;;;;;;;9.31;90.26;102152.84;10463199;28;20103;-68
2022/05/01 21:06:09;;;;;;;138.43;131.25;;;;;;;9.45;90.85;102148.06;10461286;28;20048;-68
2022/05/01 21:11:13;;;;;;;132.75;125.78;;;;;;;9.47;91.95;102148.03;10460986;28;20408;-68
2022/05/01 21:16:18;;;;;;;122.13;115.57;;;;;;;9.38;91.39;102146.56;10461354;28;20057;-68
2022/05/01 21:21:20;;;;;;;96.93;91.63;;;;;;;9.27;92.98;102149.47;10461217;28;20052;-68
2022/05/01 21:26:23;;;;;;;123.35;116.70;;;;;;;9.60;89.73;102138.00;10461553;28;20446;-68
2022/05/01 21:36:46;;;;;;;101.63;95.80;;;;;;;9.52;88.22;102140.91;10460776;28;20132;-69
2022/05/01 21:41:49;;;;;;;79.75;75.13;;;;;;;9.34;92.82;102136.25;10459704;28;20045;-69
2022/05/01 21:46:51;;;;;;;69.88;65.35;;;;;;;9.54;91.25;102146.91;10460276;28;20064;-69
2022/05/01 21:51:54;;;;;;;43.85;40.90;;;;;;;9.16;97.00;102143.72;10461228;28;20124;-69
2022/05/01 21:56:57;;;;;;;41.42;38.78;;;;;;;9.34;93.94;102134.47;10460202;28;20522;-69
2022/05/01 22:01:59;;;;;;;38.05;35.35;;;;;;;9.18;94.97;102135.84;10459076;28;20049;-69
2022/05/01 22:07:01;;;;;;;32.13;29.67;;;;;;;9.14;95.86;102135.06;10460716;28;20074;-69
2022/05/01 22:12:04;;;;;;;26.30;24.25;;;;;;;9.02;95.99;102138.06;10459844;28;20052;-69
2022/05/01 22:17:10;;;;;;;28.70;26.00;;;;;;;8.99;96.21;102131.16;10459659;28;20506;-69
2022/05/01 22:22:14;;;;;;;26.38;23.95;;;;;;;8.89;98.17;102129.72;10460149;28;20055;-69
2022/05/01 22:27:16;;;;;;;24.83;22.35;;;;;;;8.86;97.41;102124.56;10458725;28;20044;-69
2022/05/01 22:32:18;;;;;;;22.33;20.02;;;;;;;8.53;97.33;102130.72;10459060;28;20048;-69
2022/05/01 22:37:29;;;;;;;25.73;23.48;;;;;;;8.71;97.32;102121.53;10458783;28;20049;-69
2022/05/01 22:42:32;;;;;;;24.38;22.38;;;;;;;8.44;97.85;102125.75;10458323;28;20045;-68
2022/05/01 22:47:35;;;;;;;21.30;19.20;;;;;;;8.40;97.81;102118.84;10458451;28;20472;-68
2022/05/01 22:52:38;;;;;;;20.35;18.42;;;;;;;8.03;100.00;102117.22;10456703;28;20045;-68
2022/05/01 22:57:41;;;;;;;19.38;16.40;;;;;;;8.05;100.00;102111.97;10473299;28;20045;-69
2022/05/01 23:02:46;;;;;;;18.75;16.75;;;;;;;8.07;100.00;102110.16;10457511;28;20049;-68
2022/05/01 23:07:48;;;;;;;19.27;15.68;;;;;;;7.89;100.00;102112.38;10458389;28;20095;-68
2022/05/01 23:12:54;;;;;;;19.40;16.08;;;;;;;7.81;100.00;102119.53;10494687;22;20055;-57
2022/05/01 23:17:57;;;;;;;22.35;17.10;;;;;;;7.68;100.00;102118.94;10499305;28;20048;-58
2022/05/01 23:23:00;;;;;;;22.23;16.38;;;;;;;7.69;100.00;102112.84;10498592;28;20475;-57
2022/05/01 23:28:02;;;;;;;19.58;14.85;;;;;;;7.57;100.00;102108.78;10499084;28;20045;-57
2022/05/01 23:33:07;;;;;;;22.17;16.88;;;;;;;7.39;100.00;102104.84;10499002;28;20049;-57
2022/05/01 23:38:10;;;;;;;21.13;15.77;;;;;;;7.59;100.00;102111.38;10498156;28;20127;-58
2022/05/01 23:43:12;;;;;;;20.75;16.27;;;;;;;7.38;100.00;102103.16;10498800;28;20059;-57
2022/05/01 23:48:14;;;;;;;18.23;14.23;;;;;;;7.37;100.00;102098.84;10498657;28;20044;-58